sensor_id;sensor_type;location;lat;lon;timestamp;temperature;humidity
17128;DHT22;8679;50.842;4.322;2023-05-27T15:10:07;29.40;1.00
17128;DHT22;8679;50.842;4.322;2023-05-27T15:12:40;37.90;1.00
17128;DHT22;8679;50.842;4.322;2023-05-27T15:15:08;37.50;1.00
17128;DHT22;8679;50.842;4.322;2023-05-27T15:17:35;37.40;1.00
17128;DHT22;8679;50.842;4.322;2023-05-27T15:20:02;37.10;1.00
17128;DHT22;8679;50.842;4.322;2023-05-27T15:22:28;37.10;1.00
17128;DHT22;8679;50.842;4.322;2023-05-27T15:24:55;37.00;1.00
17128;DHT22;8679;50.842;4.322;2023-05-27T15:27:21;37.00;1.00
17128;DHT22;8679;50.842;4.322;2023-05-27T15:29:46;37.60;1.00
17128;DHT22;8679;50.842;4.322;2023-05-27T15:32:12;37.90;1.00
17128;DHT22;8679;50.842;4.322;2023-05-27T15:34:38;37.90;1.00
17128;DHT22;8679;50.842;4.322;2023-05-27T15:37:04;38.30;1.00
17128;DHT22;8679;50.842;4.322;2023-05-27T15:39:29;38.70;1.00
17128;DHT22;8679;50.842;4.322;2023-05-27T15:41:55;38.90;1.00
17128;DHT22;8679;50.842;4.322;2023-05-27T15:44:21;38.30;1.00
17128;DHT22;8679;50.842;4.322;2023-05-27T15:46:46;38.40;1.00
17128;DHT22;8679;50.842;4.322;2023-05-27T15:49:15;38.80;1.00
17128;DHT22;8679;50.842;4.322;2023-05-27T15:51:41;39.00;1.00
17128;DHT22;8679;50.842;4.322;2023-05-27T15:54:09;39.10;1.00
17128;DHT22;8679;50.842;4.322;2023-05-27T15:56:35;38.70;1.00
17128;DHT22;8679;50.842;4.322;2023-05-27T15:59:01;39.10;1.00
17128;DHT22;8679;50.842;4.322;2023-05-27T16:01:27;38.80;1.00
17128;DHT22;8679;50.842;4.322;2023-05-27T16:03:53;38.40;1.00
17128;DHT22;8679;50.842;4.322;2023-05-27T16:06:18;38.50;1.00
17128;DHT22;8679;50.842;4.322;2023-05-27T16:08:44;38.50;1.00
17128;DHT22;8679;50.842;4.322;2023-05-27T17:48:42;38.80;1.00
17128;DHT22;8679;50.842;4.322;2023-05-27T17:51:08;36.00;1.00
17128;DHT22;8679;50.842;4.322;2023-05-27T17:53:34;35.70;1.00
17128;DHT22;8679;50.842;4.322;2023-05-27T17:56:01;35.90;1.00
17128;DHT22;8679;50.842;4.322;2023-05-27T17:58:27;35.70;1.00
17128;DHT22;8679;50.842;4.322;2023-05-27T18:00:53;35.30;1.00
17128;DHT22;8679;50.842;4.322;2023-05-27T18:03:19;35.20;1.00
17128;DHT22;8679;50.842;4.322;2023-05-27T18:05:44;35.40;1.00
17128;DHT22;8679;50.842;4.322;2023-05-27T18:08:10;35.00;1.00
17128;DHT22;8679;50.842;4.322;2023-05-27T18:10:36;34.70;1.00
17128;DHT22;8679;50.842;4.322;2023-05-27T18:13:03;34.30;1.00
17128;DHT22;8679;50.842;4.322;2023-05-27T18:15:29;34.00;1.00
17128;DHT22;8679;50.842;4.322;2023-05-27T18:17:54;33.70;1.00
17128;DHT22;8679;50.842;4.322;2023-05-27T18:20:20;33.60;1.00
17128;DHT22;8679;50.842;4.322;2023-05-27T18:22:46;33.40;1.00
17128;DHT22;8679;50.842;4.322;2023-05-27T18:47:22;33.00;1.00
17128;DHT22;8679;50.842;4.322;2023-05-27T18:49:48;29.40;1.00
17128;DHT22;8679;50.842;4.322;2023-05-27T18:52:13;29.00;1.00
17128;DHT22;8679;50.842;4.322;2023-05-27T18:54:39;28.10;1.00
17128;DHT22;8679;50.842;4.322;2023-05-27T19:11:42;27.30;1.00
17128;DHT22;8679;50.842;4.322;2023-05-27T19:14:07;24.50;2.10
17128;DHT22;8679;50.842;4.322;2023-05-27T19:16:33;24.10;2.30
17128;DHT22;8679;50.842;4.322;2023-05-27T19:18:59;23.90;3.10
17128;DHT22;8679;50.842;4.322;2023-05-27T19:21:25;23.70;3.70
17128;DHT22;8679;50.842;4.322;2023-05-27T19:23:50;23.50;4.00
17128;DHT22;8679;50.842;4.322;2023-05-27T19:26:16;23.40;5.20
17128;DHT22;8679;50.842;4.322;2023-05-27T19:28:42;23.30;5.70
17128;DHT22;8679;50.842;4.322;2023-05-27T19:31:08;23.10;6.40
17128;DHT22;8679;50.842;4.322;2023-05-27T19:33:34;22.90;6.30
17128;DHT22;8679;50.842;4.322;2023-05-27T19:36:00;22.80;7.50
17128;DHT22;8679;50.842;4.322;2023-05-27T19:38:28;22.60;8.30
17128;DHT22;8679;50.842;4.322;2023-05-27T19:40:53;22.50;8.90
17128;DHT22;8679;50.842;4.322;2023-05-27T19:43:20;22.30;9.10
17128;DHT22;8679;50.842;4.322;2023-05-27T19:45:47;22.10;10.30
17128;DHT22;8679;50.842;4.322;2023-05-27T19:48:12;22.00;10.60
17128;DHT22;8679;50.842;4.322;2023-05-27T19:50:39;21.90;11.50
17128;DHT22;8679;50.842;4.322;2023-05-27T19:53:06;21.80;12.60
17128;DHT22;8679;50.842;4.322;2023-05-27T19:55:32;21.60;12.80
17128;DHT22;8679;50.842;4.322;2023-05-27T19:57:58;21.50;13.60
17128;DHT22;8679;50.842;4.322;2023-05-27T20:00:26;21.30;13.90
17128;DHT22;8679;50.842;4.322;2023-05-27T20:02:51;21.20;15.40
17128;DHT22;8679;50.842;4.322;2023-05-27T20:05:17;21.10;16.80
17128;DHT22;8679;50.842;4.322;2023-05-27T20:07:43;21.00;16.80
17128;DHT22;8679;50.842;4.322;2023-05-27T20:10:09;20.90;16.60
17128;DHT22;8679;50.842;4.322;2023-05-27T20:12:39;20.80;18.20
17128;DHT22;8679;50.842;4.322;2023-05-27T20:15:09;20.70;20.90
17128;DHT22;8679;50.842;4.322;2023-05-27T20:17:36;20.60;20.90
17128;DHT22;8679;50.842;4.322;2023-05-27T20:20:06;20.50;21.60
17128;DHT22;8679;50.842;4.322;2023-05-27T20:22:34;20.50;23.50
17128;DHT22;8679;50.842;4.322;2023-05-27T20:25:00;20.40;23.30
17128;DHT22;8679;50.842;4.322;2023-05-27T20:27:26;20.30;25.60
17128;DHT22;8679;50.842;4.322;2023-05-27T20:29:52;20.20;25.60
17128;DHT22;8679;50.842;4.322;2023-05-27T20:32:18;20.10;28.40
17128;DHT22;8679;50.842;4.322;2023-05-27T20:34:44;20.00;28.70
17128;DHT22;8679;50.842;4.322;2023-05-27T20:37:10;20.00;27.70
17128;DHT22;8679;50.842;4.322;2023-05-27T20:39:36;19.90;29.60
17128;DHT22;8679;50.842;4.322;2023-05-27T20:42:02;19.80;29.30
17128;DHT22;8679;50.842;4.322;2023-05-27T20:44:27;19.70;31.70
17128;DHT22;8679;50.842;4.322;2023-05-27T20:46:53;19.60;32.80
17128;DHT22;8679;50.842;4.322;2023-05-27T20:49:19;19.60;35.40
17128;DHT22;8679;50.842;4.322;2023-05-27T20:51:44;19.50;37.90
17128;DHT22;8679;50.842;4.322;2023-05-27T20:54:10;19.40;37.70
17128;DHT22;8679;50.842;4.322;2023-05-27T20:56:35;19.40;41.20
17128;DHT22;8679;50.842;4.322;2023-05-27T20:59:01;19.30;40.80
17128;DHT22;8679;50.842;4.322;2023-05-27T21:01:27;19.30;43.80
17128;DHT22;8679;50.842;4.322;2023-05-27T21:03:56;19.20;44.80
17128;DHT22;8679;50.842;4.322;2023-05-27T21:06:23;19.10;46.70
17128;DHT22;8679;50.842;4.322;2023-05-27T21:08:48;19.00;47.30
17128;DHT22;8679;50.842;4.322;2023-05-27T21:11:15;19.00;49.80
17128;DHT22;8679;50.842;4.322;2023-05-27T21:13:42;18.90;48.90
17128;DHT22;8679;50.842;4.322;2023-05-27T21:16:08;18.90;51.00
17128;DHT22;8679;50.842;4.322;2023-05-27T21:18:34;18.80;51.90
17128;DHT22;8679;50.842;4.322;2023-05-27T21:21:00;18.70;53.90
17128;DHT22;8679;50.842;4.322;2023-05-27T21:23:26;18.70;54.50
17128;DHT22;8679;50.842;4.322;2023-05-27T21:25:51;18.60;59.20
17128;DHT22;8679;50.842;4.322;2023-05-27T21:28:18;18.50;61.20
17128;DHT22;8679;50.842;4.322;2023-05-27T21:30:44;18.50;62.50
17128;DHT22;8679;50.842;4.322;2023-05-27T21:33:10;18.40;66.10
17128;DHT22;8679;50.842;4.322;2023-05-27T21:35:35;18.40;69.10
17128;DHT22;8679;50.842;4.322;2023-05-27T21:38:01;18.30;71.20
17128;DHT22;8679;50.842;4.322;2023-05-27T21:40:31;18.30;74.80
17128;DHT22;8679;50.842;4.322;2023-05-27T21:42:57;18.30;78.70
17128;DHT22;8679;50.842;4.322;2023-05-27T21:45:23;18.20;82.60
17128;DHT22;8679;50.842;4.322;2023-05-27T21:47:49;18.10;87.90
17128;DHT22;8679;50.842;4.322;2023-05-27T21:50:15;18.10;90.40
17128;DHT22;8679;50.842;4.322;2023-05-27T21:52:43;18.00;92.00
17128;DHT22;8679;50.842;4.322;2023-05-27T21:55:09;18.00;93.60
17128;DHT22;8679;50.842;4.322;2023-05-27T21:57:35;17.90;95.60
17128;DHT22;8679;50.842;4.322;2023-05-27T22:00:05;17.90;97.30
17128;DHT22;8679;50.842;4.322;2023-05-27T22:02:31;17.80;99.30
17128;DHT22;8679;50.842;4.322;2023-05-27T22:04:57;17.80;99.90
17128;DHT22;8679;50.842;4.322;2023-05-27T22:07:23;17.70;99.90
17128;DHT22;8679;50.842;4.322;2023-05-27T22:09:48;17.70;99.90
17128;DHT22;8679;50.842;4.322;2023-05-27T22:12:14;17.70;99.90
17128;DHT22;8679;50.842;4.322;2023-05-27T22:14:40;17.70;99.90
17128;DHT22;8679;50.842;4.322;2023-05-27T22:17:06;17.60;99.90
17128;DHT22;8679;50.842;4.322;2023-05-27T22:19:32;17.60;99.90
17128;DHT22;8679;50.842;4.322;2023-05-27T22:21:58;17.50;99.90
17128;DHT22;8679;50.842;4.322;2023-05-27T22:24:24;17.50;99.90
17128;DHT22;8679;50.842;4.322;2023-05-27T22:26:49;17.40;99.90
17128;DHT22;8679;50.842;4.322;2023-05-27T22:29:15;17.40;99.90
17128;DHT22;8679;50.842;4.322;2023-05-27T22:31:41;17.30;99.90
17128;DHT22;8679;50.842;4.322;2023-05-27T22:34:06;17.30;99.90
17128;DHT22;8679;50.842;4.322;2023-05-27T22:36:32;17.30;99.90
17128;DHT22;8679;50.842;4.322;2023-05-27T22:38:58;17.20;99.90
17128;DHT22;8679;50.842;4.322;2023-05-27T22:41:23;17.20;99.90
17128;DHT22;8679;50.842;4.322;2023-05-27T22:43:49;17.10;99.90
17128;DHT22;8679;50.842;4.322;2023-05-27T22:46:15;17.00;99.90
17128;DHT22;8679;50.842;4.322;2023-05-27T22:48:42;17.00;99.90
17128;DHT22;8679;50.842;4.322;2023-05-27T22:51:08;16.90;99.90
17128;DHT22;8679;50.842;4.322;2023-05-27T22:53:34;16.90;99.90
17128;DHT22;8679;50.842;4.322;2023-05-27T22:56:00;16.90;99.90
17128;DHT22;8679;50.842;4.322;2023-05-27T22:58:27;16.80;99.90
17128;DHT22;8679;50.842;4.322;2023-05-27T23:00:52;16.80;99.90
17128;DHT22;8679;50.842;4.322;2023-05-27T23:03:18;16.80;99.90
17128;DHT22;8679;50.842;4.322;2023-05-27T23:05:43;16.80;99.90
17128;DHT22;8679;50.842;4.322;2023-05-27T23:08:09;16.70;99.90
17128;DHT22;8679;50.842;4.322;2023-05-27T23:10:35;16.70;99.90
17128;DHT22;8679;50.842;4.322;2023-05-27T23:13:00;16.60;99.90
17128;DHT22;8679;50.842;4.322;2023-05-27T23:15:26;16.60;99.90
17128;DHT22;8679;50.842;4.322;2023-05-27T23:17:52;16.50;99.90
17128;DHT22;8679;50.842;4.322;2023-05-27T23:20:17;16.50;99.90
17128;DHT22;8679;50.842;4.322;2023-05-27T23:22:43;16.40;99.90
17128;DHT22;8679;50.842;4.322;2023-05-27T23:25:08;16.40;99.90
17128;DHT22;8679;50.842;4.322;2023-05-27T23:27:35;16.30;99.90
17128;DHT22;8679;50.842;4.322;2023-05-27T23:30:00;16.30;99.90
17128;DHT22;8679;50.842;4.322;2023-05-27T23:32:26;16.30;99.90
17128;DHT22;8679;50.842;4.322;2023-05-27T23:34:52;16.20;99.90
17128;DHT22;8679;50.842;4.322;2023-05-27T23:37:17;16.20;99.90
17128;DHT22;8679;50.842;4.322;2023-05-27T23:39:43;16.10;99.90
17128;DHT22;8679;50.842;4.322;2023-05-27T23:42:08;16.10;99.90
17128;DHT22;8679;50.842;4.322;2023-05-27T23:44:34;16.10;99.90
17128;DHT22;8679;50.842;4.322;2023-05-27T23:47:00;16.00;99.90
17128;DHT22;8679;50.842;4.322;2023-05-27T23:49:26;16.00;99.90
17128;DHT22;8679;50.842;4.322;2023-05-27T23:51:51;15.90;99.90
17128;DHT22;8679;50.842;4.322;2023-05-27T23:54:17;15.90;99.90
17128;DHT22;8679;50.842;4.322;2023-05-27T23:56:42;15.90;99.90
17128;DHT22;8679;50.842;4.322;2023-05-27T23:59:08;15.80;99.90
